Terminal Aerodrome Forecast
Issued by NWS Jackson, MS

Home | Current Version | Previous Version | Text Only | Print | Product List | Glossary On
Versions: 1 2 3 4 5 6 7 8 9 10 11 12
782
FTUS44 KMEG 121122
TAFTUP
TAF
KTUP 121122Z 1212/1312 35004KT P6SM FEW150 SCT250
     FM121600 36008KT P6SM SCT250
     FM130300 03010G16KT P6SM SCT120=

USA.gov is the U.S. government's official web portal to all federal, state and local government web resources and services.